LBSF Airport Information

Runway Information
Runway 09 Length 9186 ft width 147 ft
Elevation 1739 ft Threshold 0 ft Heading 95
Runway 27 Length 9186 ft Width 147 ft
Elevation 1742 ft Threshold 0 ft Heading 275
Airport Frequencies
Type APP Name APP Frequency 123.7 MHZ
Type ATIS Name ATIS Frequency 124.05 MHZ
Type TWR Name TWR Frequency 118.1 MHZ
Airport Navaids
Type NDB Name Bozhourishte Frequency 312 KHZ
Type NDB Name Sofia Frequency 375 KHZ
Type NDB Name Sofia Frequency 335 KHZ
Type NDB Name Sofia Frequency 529 KHZ
Type VOR-DME Name Sofia Frequency 112600 KHZ
Type NDB Name Sofia Frequency 350 KHZ
Airport Weather Information & NOTAM
ADDS - METARS form results

(0325 UTC 07 April 2020)
Data provider http://aviationweather.gov/metar/data/
 
METAR text: LBSF 070300Z 13004KT CAVOK M02/M05 Q1032 NOSIG
Conditions at: LBSF (SOFIA , BG) observed 0300 UTC 07 April 2020
Temperature: -2.0°C (28°F)
Dewpoint: -5.0°C (23°F) [RH = 80%]
Pressure (altimeter): 30.47 inches Hg (1032.0 mb)
Winds: from the SE (130 degrees) at 5 MPH (4 knots; 2.1 m/s)
Visibility: 6 or more miles (10+ km)
Ceiling: ceiling and visibility are OK
Clouds: unknown
Weather: no significant weather observed at this time

METAR text: LBSF 070230Z 11003KT CAVOK M02/M04 Q1032 NOSIG
Conditions at: LBSF (SOFIA , BG) observed 0230 UTC 07 April 2020
Temperature: -2.0°C (28°F)
Dewpoint: -4.0°C (25°F) [RH = 86%]
Pressure (altimeter): 30.47 inches Hg (1032.0 mb)
Winds: from the ESE (110 degrees) at 3 MPH (3 knots; 1.5 m/s)
Visibility: 6 or more miles (10+ km)
Ceiling: ceiling and visibility are OK
Clouds: unknown
Weather: no significant weather observed at this time

Forecast for: LBSF (SOFIA , BG)
Text: TAF LBSF 062300Z 0700/0724 08008KT CAVOK
Forecast period: 0000 to 0800 UTC 07 April 2020
Forecast type: FROM: standard forecast or significant change
Winds: from the E (80 degrees) at 9 MPH (8 knots; 4.1 m/s)
Visibility: 6 or more miles 10+ km)
Ceiling: unknown
Clouds: missing
Weather: NSW  (no significant weather)
Text: BECMG 0708/0710 08018KT
Forecast period: 0800 UTC 07 April 2020 to 0000 UTC 08 April 2020
Forecast type: BECOMING: Conditions expected to become as follows by 1000 UTC 07 April 2020
Winds: from the E (80 degrees) at 21 MPH (18 knots; 9.3 m/s)
Visibility: 6 or more miles 10+ km)
Ceiling: unknown
Clouds: missing
Weather: NSW  (no significant weather)